Observations for GROTTAGLIE CIV AFB, Italy (LIBG)

LIBG 251750Z 34005KT CAVOK 27/19 Q1014  
LIBG 251650Z 03004KT CAVOK 29/18 Q1014  
LIBG 251550Z 01007KT CAVOK 29/20 Q1014  
LIBG 251450Z 02009KT CAVOK 29/20 Q1014  
LIBG 251350Z 05008KT 9999 FEW020 30/22 Q1014 RETS   
LIBG 251250Z 06010KT 9999 TS FEW020 FEW025CB 32/19 Q1014
LIBG 251150Z 04012KT 9999 FEW030 34/20 Q1014
LIBG 251050Z VRB02KT CAVOK 33/17 Q1015  
LIBG 250950Z 24003KT CAVOK 32/18 Q1015  
LIBG 250850Z VRB03KT CAVOK 32/19 Q1016  
LIBG 250750Z 00000KT CAVOK 30/19 Q1015  
LIBG 250650Z 36007KT 330V030 CAVOK 28/21 Q1015  
LIBG 250600Z 35004KT CAVOK 26/21 Q1015